DFOO

Details ICAO DFOO (BOY)
Name BOBO DIOULASSO
Region Burkina Faso
Timezone Africa/Ouagadougou (UTC+0.0)
Plans Departing 16
Arriving 20
Stats Elevation 1,511 ft / 461 m (AMSL)
Location 11.160058° -4.330970°
Runways 1
Magnetic Variation 3.268° W
Sunrise 2018-05-23 05:54:53 UTC / 2018-05-23 05:54:53 Local
Sunset 2018-05-23 18:36:07 UTC / 2018-05-23 18:36:07 Local
Advertisement - Login to hide

Runways

ID Width Length Bearing (true) Bearing (mag) Surface Threshold Offset Overrun Length
06 148 ft / 45 m 10,757 ft / 3,279 m 52.66° 55.93° Asphalt 0 ft / 0 m 262 ft / 80 m
24 148 ft / 45 m 10,757 ft / 3,279 m 232.67° 235.94° Asphalt 0 ft / 0 m 262 ft / 80 m

Map

Weather


0- 5 10 15 20 25 30 35+ Temperature / ° C

Clouds and Precipitation
Forecast for 2018-05-23 06:00 UTC. Updated 38 minutes ago

Ground ~20,000 ft ~40,000 ft Winds

METAR

Not found

TAF

TAF DFOO 230500Z 2306/2406 20008KT 9999 FEW020 TEMPO 2315/2324 4000 TSRA SCT020 FEW033CB

Frequencies

Tower 119.70 MHz TWR
Warning: Do not use this data for real-world aviation or navigation. No guarantee of current accuracy is given.